Saint Albans, Missouri
Current Conditions -  °F | °C
As of 7:54 PM on Sunday 21 Dec 2014 (Local Time) from KSUS Reporting Station
Overcast Overcast  
Wind Chill: 42°   Ceiling: 5000
Heat Index: 42°   Visibility: 10mi
Dew Point: 32°   Wind: 3mph
Humidity: 67%   Direction: NA
Pressure: 29.97"   Gusts: NA
Location:  38.58°N, 90.77°W
Report Text: KSUS 220154Z VRB03KT 10SM OVC050 06/00 A2997 RMK AO2 SLP154 T00560000
Loading
Personal Weather Stations






























Interactive Weather Map New forecast layout! Learn more

10-Day Weather Forecast

Advertisements
Track Severe Weather on mobile